Time;durP1;ratioP1;P1;durP2;ratioP2;P2;SDS_P1;SDS_P2;PMS_P1;PMS_P2;Temp;Humidity;BMP_temperature;BMP_pressure;BME280_temperature;BME280_humidity;BME280_pressure;Samples;Min_cycle;Max_cycle;Signal;HPM_P1;HPM_P2
2022/01/06 00:01:29;;;;;;;;;;;;;;;-4.86;79.82;95049.84;4984172;28;19993;-74
2022/01/06 00:03:54;;;;;;;;;;;;;;;-4.95;79.72;95040.84;5002838;28;20143;-74
2022/01/06 00:06:21;;;;;;;;;;;;;;;-4.81;79.88;95046.97;5002738;28;20701;-74
2022/01/06 00:08:47;;;;;;;;;;;;;;;-4.74;78.90;95050.00;5003086;28;20092;-75
2022/01/06 00:11:13;;;;;;;;;;;;;;;-4.92;80.13;95050.25;5002422;28;20340;-74
2022/01/06 00:14:00;;;;;;;;;;;;;;;-4.65;79.03;95056.38;4984547;28;20061;-75
2022/01/06 00:24:19;;;;;;;;;;;;;;;-4.68;78.89;95062.63;4987398;28;20004;-75
2022/01/06 00:26:44;;;;;;;;;;;;;;;-4.86;80.09;95062.81;4968178;28;19974;-75
2022/01/06 00:29:09;;;;;;;;;;;;;;;-4.60;79.17;95064.72;4985164;28;20063;-75
2022/01/06 00:31:35;;;;;;;;;;;;;;;-4.68;78.57;95062.63;4984722;28;19994;-75
2022/01/06 00:34:00;;;;;;;;;;;;;;;-4.71;78.83;95053.25;4984183;28;19976;-75
2022/01/06 00:36:25;;;;;;;;;;;;;;;-4.66;78.57;95047.75;5000221;28;19998;-75
2022/01/06 00:38:50;;;;;;;;;;;;;;;-4.55;77.63;95065.28;5002136;28;20037;-74
2022/01/06 00:41:16;;;;;;;;;;;;;;;-4.35;77.25;95063.97;5002444;28;20008;-75
2022/01/06 00:43:41;;;;;;;;;;;;;;;-4.35;77.34;95058.78;5000157;28;19997;-75
2022/01/06 00:46:06;;;;;;;;;;;;;;;-4.52;78.33;95057.25;5001859;28;20308;-75
2022/01/06 00:48:31;;;;;;;;;;;;;;;-4.30;76.20;95064.53;5000378;28;20056;-75
2022/01/06 00:50:57;;;;;;;;;;;;;;;-4.37;76.69;95067.63;5002367;28;19980;-74
2022/01/06 00:53:22;;;;;;;;;;;;;;;-5.12;79.44;95069.66;5003298;28;19974;-74
2022/01/06 00:55:47;;;;;;;;;;;;;;;-5.56;82.64;95082.63;5021515;28;20450;-74
2022/01/06 00:58:13;;;;;;;;;;;;;;;-5.36;82.23;95080.59;5003875;28;20024;-74
2022/01/06 01:00:41;;;;;;;;;;;;;;;-5.12;80.54;95080.88;4967788;28;20252;-74
2022/01/06 01:03:06;;;;;;;;;;;;;;;-4.58;78.31;95089.66;4984038;28;20339;-74
2022/01/06 01:05:32;;;;;;;;;;;;;;;-4.46;77.62;95080.28;4983526;28;20029;-74
2022/01/06 01:07:57;;;;;;;;;;;;;;;-4.39;76.98;95091.09;5001916;28;20116;-74
2022/01/06 01:10:22;;;;;;;;;;;;;;;-4.68;78.06;95093.78;4983821;28;20497;-74
2022/01/06 01:12:48;;;;;;;;;;;;;;;-5.07;79.16;95103.94;5001250;28;20048;-74
2022/01/06 01:15:19;;;;;;;;;;;;;;;-5.34;80.75;95092.53;4982810;28;20032;-74
2022/01/06 01:17:47;;;;;;;;;;;;;;;-4.50;77.68;95096.16;5001893;28;19997;-74
2022/01/06 01:20:12;;;;;;;;;;;;;;;-4.35;76.78;95095.16;5001042;28;19989;-74
2022/01/06 01:22:37;;;;;;;;;;;;;;;-4.60;77.16;95106.28;4983460;28;19966;-74
2022/01/06 01:25:03;;;;;;;;;;;;;;;-4.55;77.21;95101.66;5000951;28;20495;-74
2022/01/06 01:27:34;;;;;;;;;;;;;;;-4.91;79.74;95111.63;4983891;28;20855;-74
2022/01/06 01:30:04;;;;;;;;;;;;;;;-4.40;77.43;95112.00;4983939;28;19980;-74
2022/01/06 01:32:35;;;;;;;;;;;;;;;-3.87;75.89;95109.44;4984161;28;20443;-74
2022/01/06 01:35:02;;;;;;;;;;;;;;;-4.17;75.25;95116.53;5000409;28;19977;-74
2022/01/06 01:37:28;;;;;;;;;;;;;;;-4.12;75.14;95115.41;4983469;28;20381;-75
2022/01/06 01:39:53;;;;;;;;;;;;;;;-4.28;75.58;95125.97;4983515;28;19994;-74
2022/01/06 01:42:18;;;;;;;;;;;;;;;-4.66;77.43;95128.28;4983966;28;19970;-74
2022/01/06 01:44:44;;;;;;;;;;;;;;;-4.44;76.82;95135.56;4966180;28;19997;-74
2022/01/06 01:47:14;;;;;;;;;;;;;;;-4.71;77.39;95146.78;5000850;28;19990;-74
2022/01/06 01:49:56;;;;;;;;;;;;;;;-5.11;78.37;95152.63;4968288;28;20041;-74
2022/01/06 01:52:21;;;;;;;;;;;;;;;-4.86;77.92;95143.34;4969067;28;19994;-74
2022/01/06 01:54:47;;;;;;;;;;;;;;;-5.00;78.72;95145.97;5028300;28;20040;-74
2022/01/06 01:57:12;;;;;;;;;;;;;;;-4.80;79.19;95138.72;5010497;28;19997;-74
2022/01/06 01:59:37;;;;;;;;;;;;;;;-4.58;77.59;95146.81;4983545;28;20040;-74
2022/01/06 02:02:03;;;;;;;;;;;;;;;-4.85;77.70;95149.38;5001664;28;19973;-74
2022/01/06 02:04:28;;;;;;;;;;;;;;;-4.58;77.12;95156.41;5002620;28;20361;-74
2022/01/06 02:06:53;;;;;;;;;;;;;;;-4.56;76.87;95150.19;4986238;28;20297;-74
2022/01/06 02:09:18;;;;;;;;;;;;;;;-4.36;76.32;95147.25;5019291;28;19965;-74
2022/01/06 02:11:44;;;;;;;;;;;;;;;-4.45;76.41;95151.28;5003828;28;20005;-74
2022/01/06 02:14:09;;;;;;;;;;;;;;;-4.19;75.50;95147.03;5004488;28;20397;-73
2022/01/06 02:16:34;;;;;;;;;;;;;;;-4.50;76.14;95148.97;5009506;28;20217;-73
2022/01/06 02:18:59;;;;;;;;;;;;;;;-4.51;76.82;95138.66;5003813;28;19994;-73
2022/01/06 02:21:25;;;;;;;;;;;;;;;-4.12;75.08;95144.88;4986268;28;19966;-73
2022/01/06 02:23:50;;;;;;;;;;;;;;;-4.39;75.30;95145.69;4969818;28;19996;-73
2022/01/06 02:26:15;;;;;;;;;;;;;;;-4.42;76.39;95145.88;4960998;28;19975;-73
2022/01/06 02:28:41;;;;;;;;;;;;;;;-4.06;74.75;95139.28;4998988;28;20517;-73
2022/01/06 02:31:06;;;;;;;;;;;;;;;-4.44;76.39;95153.75;4985962;28;20346;-74
2022/01/06 02:33:31;;;;;;;;;;;;;;;-4.70;77.46;95161.44;5002810;28;20044;-73
2022/01/06 02:35:57;;;;;;;;;;;;;;;-4.62;77.87;95171.34;5005263;28;20214;-73
2022/01/06 02:38:22;;;;;;;;;;;;;;;-4.93;79.12;95164.59;5007366;28;20341;-73
2022/01/06 02:40:47;;;;;;;;;;;;;;;-5.03;79.25;95166.91;5006890;28;19994;-73
2022/01/06 02:43:15;;;;;;;;;;;;;;;-4.98;78.84;95165.72;5022127;28;19990;-73
2022/01/06 02:45:41;;;;;;;;;;;;;;;-4.72;77.69;95152.88;5007223;28;19997;-73
2022/01/06 02:48:09;;;;;;;;;;;;;;;-4.74;77.72;95172.94;5016645;28;20044;-73
2022/01/06 02:50:41;;;;;;;;;;;;;;;-4.71;77.68;95170.16;4987700;28;20369;-73
2022/01/06 02:53:06;;;;;;;;;;;;;;;-4.82;77.07;95185.56;4987325;28;20003;-73
2022/01/06 02:55:32;;;;;;;;;;;;;;;-4.87;77.33;95182.38;4987124;28;19990;-73
2022/01/06 02:57:57;;;;;;;;;;;;;;;-4.44;76.18;95181.53;5002314;28;19989;-73
2022/01/06 03:00:22;;;;;;;;;;;;;;;-4.61;76.85;95193.81;5006632;28;19994;-73
2022/01/06 03:02:48;;;;;;;;;;;;;;;-5.07;78.87;95193.06;5006730;28;19966;-73
2022/01/06 03:05:14;;;;;;;;;;;;;;;-5.07;78.61;95187.03;4959670;28;1800717;-70
2022/01/06 03:07:39;;;;;;;;;;;;;;;-4.83;78.40;95192.50;5022984;28;20265;-71
2022/01/06 03:10:07;;;;;;;;;;;;;;;-4.70;76.84;95202.16;5006520;28;20005;-71
2022/01/06 03:12:39;;;;;;;;;;;;;;;-4.59;76.93;95202.34;5022529;28;20001;-71
2022/01/06 03:15:04;;;;;;;;;;;;;;;-4.39;76.03;95210.66;5007444;28;19997;-71
2022/01/06 03:17:29;;;;;;;;;;;;;;;-4.26;76.41;95199.50;5008403;28;20528;-71
2022/01/06 03:19:55;;;;;;;;;;;;;;;-4.52;76.11;95207.16;5007674;28;19990;-71
2022/01/06 03:22:20;;;;;;;;;;;;;;;-4.48;76.57;95203.44;4990208;28;20056;-72
2022/01/06 03:24:45;;;;;;;;;;;;;;;-4.24;75.52;95193.28;5007479;28;20522;-72
2022/01/06 03:27:10;;;;;;;;;;;;;;;-4.60;76.08;95208.47;4989542;28;22084;-72
2022/01/06 03:29:35;;;;;;;;;;;;;;;-4.37;76.28;95205.38;5008117;28;19993;-72
2022/01/06 03:32:01;;;;;;;;;;;;;;;-4.43;75.29;95219.59;4971812;28;19997;-72
2022/01/06 03:34:30;;;;;;;;;;;;;;;-4.59;76.50;95225.72;5006536;28;19966;-72
2022/01/06 03:36:55;;;;;;;;;;;;;;;-4.28;75.49;95217.78;5005907;28;20005;-72
2022/01/06 03:39:20;;;;;;;;;;;;;;;-4.01;74.27;95223.97;5007433;28;19994;-72
2022/01/06 03:41:46;;;;;;;;;;;;;;;-3.97;73.60;95226.25;5006277;28;19966;-72
2022/01/06 03:44:12;;;;;;;;;;;;;;;-4.11;73.62;95226.31;5007179;28;19994;-72
2022/01/06 03:46:37;;;;;;;;;;;;;;;-4.00;73.67;95221.28;5006523;28;20069;-72
2022/01/06 03:49:02;;;;;;;;;;;;;;;-3.71;72.94;95223.78;4993993;28;19994;-72
2022/01/06 03:51:28;;;;;;;;;;;;;;;-4.27;74.28;95235.06;4968816;28;20018;-72
2022/01/06 03:53:53;;;;;;;;;;;;;;;-3.91;73.22;95235.44;4969001;28;20476;-72
2022/01/06 03:56:18;;;;;;;;;;;;;;;-3.84;73.53;95239.34;4986274;28;19994;-72
2022/01/06 03:58:44;;;;;;;;;;;;;;;-3.94;73.22;95241.69;4986566;28;20052;-72
2022/01/06 04:01:09;;;;;;;;;;;;;;;-3.74;72.07;95234.38;4984924;28;20426;-72
2022/01/06 04:03:35;;;;;;;;;;;;;;;-4.23;74.11;95241.75;4990839;28;20032;-72
2022/01/06 04:06:00;;;;;;;;;;;;;;;-3.85;72.67;95239.44;5007149;28;20493;-72
2022/01/06 04:08:25;;;;;;;;;;;;;;;-3.58;71.33;95247.25;4989341;28;19990;-72
2022/01/06 04:10:50;;;;;;;;;;;;;;;-3.95;73.87;95234.81;4989412;28;19965;-73
2022/01/06 04:13:15;;;;;;;;;;;;;;;-4.11;74.36;95250.53;4989224;28;19993;-73
2022/01/06 04:15:41;;;;;;;;;;;;;;;-4.06;74.56;95250.25;4988735;28;20105;-73
2022/01/06 04:18:06;;;;;;;;;;;;;;;-3.50;73.36;95241.53;5007024;28;20004;-73
2022/01/06 04:20:31;;;;;;;;;;;;;;;-3.53;71.91;95242.56;4988359;28;20036;-73
2022/01/06 04:22:57;;;;;;;;;;;;;;;-3.82;73.17;95249.66;5006610;28;19966;-73
2022/01/06 04:25:22;;;;;;;;;;;;;;;-3.40;71.21;95249.56;5006957;28;20022;-73
2022/01/06 04:27:47;;;;;;;;;;;;;;;-3.19;71.04;95247.31;5006442;28;20365;-73
2022/01/06 04:30:12;;;;;;;;;;;;;;;-2.99;69.65;95254.78;4989090;28;20068;-73
2022/01/06 04:32:38;;;;;;;;;;;;;;;-2.68;68.80;95256.13;5006328;28;20001;-73
2022/01/06 04:35:03;;;;;;;;;;;;;;;-3.43;70.99;95253.22;4988668;28;19969;-73
2022/01/06 04:37:29;;;;;;;;;;;;;;;-2.87;69.26;95259.16;4988503;28;19986;-73
2022/01/06 04:39:54;;;;;;;;;;;;;;;-2.80;69.05;95263.03;5006210;28;20573;-72
2022/01/06 04:42:19;;;;;;;;;;;;;;;-3.00;69.50;95272.16;4988665;28;19974;-73
2022/01/06 04:44:45;;;;;;;;;;;;;;;-3.30;69.89;95274.09;5005764;28;20028;-73
2022/01/06 04:47:10;;;;;;;;;;;;;;;-3.01;69.95;95278.31;5005812;28;19992;-72
2022/01/06 04:49:35;;;;;;;;;;;;;;;-3.02;70.01;95277.47;5006344;28;20500;-73
2022/01/06 04:52:01;;;;;;;;;;;;;;;-2.99;69.16;95275.63;4988143;28;20183;-73
2022/01/06 04:54:26;;;;;;;;;;;;;;;-2.93;69.94;95286.44;5006838;28;19966;-73
2022/01/06 04:56:51;;;;;;;;;;;;;;;-2.63;68.83;95290.56;5005028;28;20315;-73
2022/01/06 04:59:17;;;;;;;;;;;;;;;-2.90;69.62;95301.03;5005569;28;20005;-73
2022/01/06 05:01:42;;;;;;;;;;;;;;;-2.98;69.41;95295.50;5003688;28;20028;-73
2022/01/06 05:04:07;;;;;;;;;;;;;;;-3.01;70.43;95306.97;4987988;28;20237;-73
2022/01/06 05:06:33;;;;;;;;;;;;;;;-2.96;69.48;95309.28;5005733;28;19998;-73
2022/01/06 05:08:59;;;;;;;;;;;;;;;-3.11;71.01;95324.13;4988228;28;20022;-73
2022/01/06 05:11:24;;;;;;;;;;;;;;;-2.96;71.81;95319.72;5005439;28;19993;-72
2022/01/06 05:13:49;;;;;;;;;;;;;;;-2.93;70.63;95327.28;5006037;28;19966;-73
2022/01/06 05:16:14;;;;;;;;;;;;;;;-2.73;70.33;95322.53;4988152;28;19994;-72
2022/01/06 05:18:40;;;;;;;;;;;;;;;-2.67;69.21;95327.34;4988146;28;19993;-73
2022/01/06 05:21:05;;;;;;;;;;;;;;;-2.58;68.02;95329.31;5005075;28;19997;-72
2022/01/06 05:23:31;;;;;;;;;;;;;;;-2.33;67.75;95325.06;5005428;28;20000;-72
2022/01/06 05:25:57;;;;;;;;;;;;;;;-2.41;66.82;95328.19;5005999;28;20419;-70
2022/01/06 05:28:22;;;;;;;;;;;;;;;-2.80;68.45;95328.16;4987555;28;19997;-70
2022/01/06 05:30:47;;;;;;;;;;;;;;;-3.06;69.21;95343.72;4987727;28;20367;-70
2022/01/06 05:33:13;;;;;;;;;;;;;;;-2.89;68.34;95349.59;5005405;28;20493;-71
2022/01/06 05:35:38;;;;;;;;;;;;;;;-3.54;70.98;95358.03;5005341;28;20008;-71
2022/01/06 05:38:03;;;;;;;;;;;;;;;-3.57;70.86;95362.63;5005573;28;19985;-71
2022/01/06 05:40:28;;;;;;;;;;;;;;;-4.22;73.04;95359.56;5005116;28;20077;-71
2022/01/06 05:42:56;;;;;;;;;;;;;;;-4.19;72.77;95365.44;4967169;28;20029;-70
2022/01/06 05:45:22;;;;;;;;;;;;;;;-4.25;73.62;95370.19;4985764;28;19966;-71
2022/01/06 05:47:47;;;;;;;;;;;;;;;-3.95;73.03;95366.63;4987409;28;20000;-71
2022/01/06 05:50:12;;;;;;;;;;;;;;;-3.68;71.84;95374.53;4987492;28;20028;-71
2022/01/06 05:52:38;;;;;;;;;;;;;;;-3.79;71.89;95387.34;4986999;28;20490;-71
2022/01/06 05:55:03;;;;;;;;;;;;;;;-3.64;71.01;95380.34;4987001;28;20077;-71
2022/01/06 05:57:28;;;;;;;;;;;;;;;-3.82;72.35;95387.53;4987288;28;20774;-71
2022/01/06 05:59:53;;;;;;;;;;;;;;;-3.95;72.64;95395.25;5004616;28;20000;-71
2022/01/06 06:02:19;;;;;;;;;;;;;;;-3.80;73.28;95383.91;5004935;28;19965;-70
2022/01/06 06:04:45;;;;;;;;;;;;;;;-3.91;71.26;95394.13;5004598;28;20513;-71
2022/01/06 06:07:11;;;;;;;;;;;;;;;-3.98;72.06;95382.44;5004120;28;19998;-71
2022/01/06 06:09:36;;;;;;;;;;;;;;;-3.69;71.99;95390.22;5005087;28;19973;-70
2022/01/06 06:12:01;;;;;;;;;;;;;;;-3.53;70.63;95392.72;4986776;28;20044;-71
2022/01/06 06:14:27;;;;;;;;;;;;;;;-3.45;70.47;95402.63;5004558;28;19977;-71
2022/01/06 06:16:52;;;;;;;;;;;;;;;-3.70;70.65;95401.56;4986640;28;20087;-71
2022/01/06 06:19:17;;;;;;;;;;;;;;;-3.72;71.14;95399.06;5004186;28;20055;-71
2022/01/06 06:21:42;;;;;;;;;;;;;;;-3.89;71.39;95407.88;5004786;28;20393;-71
2022/01/06 06:24:08;;;;;;;;;;;;;;;-3.22;69.57;95414.22;5004667;28;20315;-70
2022/01/06 06:26:33;;;;;;;;;;;;;;;-2.95;68.78;95405.56;4987008;28;19961;-70
2022/01/06 06:28:59;;;;;;;;;;;;;;;-2.89;68.92;95412.13;4986727;28;19993;-71
2022/01/06 06:31:24;;;;;;;;;;;;;;;-2.77;67.78;95413.13;4986661;28;19994;-70
2022/01/06 06:33:49;;;;;;;;;;;;;;;-2.86;68.37;95411.13;5003571;28;20601;-70
2022/01/06 06:36:14;;;;;;;;;;;;;;;-3.61;70.11;95427.03;5019387;28;20077;-70
2022/01/06 06:38:39;;;;;;;;;;;;;;;-3.09;68.95;95421.25;5004453;28;20033;-70
2022/01/06 06:41:05;;;;;;;;;;;;;;;-3.28;69.00;95423.25;5019417;28;19989;-71
2022/01/06 06:43:30;;;;;;;;;;;;;;;-2.86;66.29;95431.97;5003357;28;20097;-70
2022/01/06 06:45:55;;;;;;;;;;;;;;;-3.30;69.81;95442.50;5004442;28;20028;-70
2022/01/06 06:48:22;;;;;;;;;;;;;;;-3.37;69.49;95436.03;5004148;28;19997;-71
2022/01/06 06:50:47;;;;;;;;;;;;;;;-3.52;69.04;95444.66;5003702;28;20460;-70
2022/01/06 06:53:12;;;;;;;;;;;;;;;-3.88;70.81;95448.59;5003510;28;20020;-70
2022/01/06 06:55:38;;;;;;;;;;;;;;;-3.72;71.24;95458.06;5003072;28;19992;-70
2022/01/06 06:58:03;;;;;;;;;;;;;;;-3.82;72.71;95461.22;5004140;28;20036;-70
2022/01/06 07:00:28;;;;;;;;;;;;;;;-3.45;71.80;95457.31;5003810;28;20040;-70
2022/01/06 07:02:53;;;;;;;;;;;;;;;-3.86;70.78;95459.75;5004206;28;19974;-68
2022/01/06 07:05:19;;;;;;;;;;;;;;;-3.93;72.58;95461.03;4985479;28;19994;-69
2022/01/06 07:07:44;;;;;;;;;;;;;;;-4.27;71.85;95461.28;5003578;28;20494;-68
2022/01/06 07:10:09;;;;;;;;;;;;;;;-3.97;71.49;95452.56;5003977;28;19970;-68
2022/01/06 07:12:45;;;;;;;;;;;;;;;-3.42;69.29;95457.13;4985982;28;20001;-69
2022/01/06 07:15:11;;;;;;;;;;;;;;;-3.44;69.66;95469.38;5003540;28;19980;-70
2022/01/06 07:17:36;;;;;;;;;;;;;;;-3.45;70.65;95467.72;5003890;28;20375;-70
2022/01/06 07:20:01;;;;;;;;;;;;;;;-3.12;70.70;95469.19;5002258;28;19986;-69
2022/01/06 07:22:27;;;;;;;;;;;;;;;-3.17;68.40;95479.03;4989641;28;20439;-69
2022/01/06 07:24:52;;;;;;;;;;;;;;;-2.87;68.07;95483.25;5007189;28;19993;-70
2022/01/06 07:27:17;;;;;;;;;;;;;;;-2.92;67.21;95488.75;5006943;28;19992;-68
2022/01/06 07:29:43;;;;;;;;;;;;;;;-3.28;68.52;95488.38;5007935;28;20494;-69
2022/01/06 07:32:08;;;;;;;;;;;;;;;-3.47;70.04;95503.44;5007113;28;20000;-70
2022/01/06 07:34:33;;;;;;;;;;;;;;;-3.49;68.88;95508.75;5007839;28;19966;-70
2022/01/06 07:36:59;;;;;;;;;;;;;;;-3.18;69.30;95495.59;4994014;28;20622;-70
2022/01/06 07:39:25;;;;;;;;;;;;;;;-3.20;69.29;95505.25;5001027;28;19998;-69
2022/01/06 07:41:50;;;;;;;;;;;;;;;-3.56;70.30;95510.84;5007026;28;19977;-70
2022/01/06 07:44:15;;;;;;;;;;;;;;;-2.85;67.99;95510.03;5006888;28;20515;-68
2022/01/06 07:46:42;;;;;;;;;;;;;;;-3.18;68.89;95512.06;5005783;28;20016;-69
2022/01/06 07:49:07;;;;;;;;;;;;;;;-3.02;67.37;95519.75;5006664;28;20104;-69
2022/01/06 07:51:33;;;;;;;;;;;;;;;-3.07;67.42;95524.41;5006566;28;20093;-69
2022/01/06 07:54:01;;;;;;;;;;;;;;;-3.24;67.30;95530.66;5007078;28;19966;-70
2022/01/06 07:56:26;;;;;;;;;;;;;;;-3.46;68.47;95526.75;4995306;28;19996;-70
2022/01/06 07:58:51;;;;;;;;;;;;;;;-3.30;67.74;95542.28;5021736;28;20087;-70
2022/01/06 08:01:17;;;;;;;;;;;;;;;-3.35;68.25;95553.91;5021380;28;19992;-70
2022/01/06 08:03:42;;;;;;;;;;;;;;;-3.33;66.94;95550.28;5002967;28;20033;-70
2022/01/06 08:06:07;;;;;;;;;;;;;;;-3.20;67.26;95560.78;5006615;28;20317;-70
2022/01/06 08:08:33;;;;;;;;;;;;;;;-3.08;66.52;95555.78;5005612;28;20000;-69
2022/01/06 08:10:58;;;;;;;;;;;;;;;-3.16;66.23;95558.84;4983463;28;20399;-69
2022/01/06 08:13:23;;;;;;;;;;;;;;;-2.94;66.61;95554.91;4987149;28;20410;-70
2022/01/06 08:15:48;;;;;;;;;;;;;;;-2.80;66.08;95552.28;5006037;28;19993;-70
2022/01/06 08:18:13;;;;;;;;;;;;;;;-2.42;64.12;95562.97;5005803;28;19992;-70
2022/01/06 08:20:39;;;;;;;;;;;;;;;-2.39;65.40;95561.03;5005775;28;20463;-68
2022/01/06 08:23:07;;;;;;;;;;;;;;;-1.87;63.68;95560.31;5005593;28;19969;-67
2022/01/06 08:25:32;;;;;;;;;;;;;;;-1.83;63.45;95561.81;5005985;28;19985;-69
2022/01/06 08:27:57;;;;;;;;;;;;;;;-2.05;64.60;95575.41;5005593;28;19989;-69
2022/01/06 08:30:22;;;;;;;;;;;;;;;-2.03;64.25;95574.38;5006380;28;20502;-69
2022/01/06 08:32:48;;;;;;;;;;;;;;;-1.82;63.04;95571.31;5004848;28;20429;-68
2022/01/06 08:35:13;;;;;;;;;;;;;;;-1.59;63.99;95576.78;5005585;28;19990;-67
2022/01/06 08:37:38;;;;;;;;;;;;;;;-1.78;64.89;95583.22;5020990;28;19986;-67
2022/01/06 08:40:04;;;;;;;;;;;;;;;-1.14;62.75;95578.97;5005193;28;20003;-69
2022/01/06 08:42:29;;;;;;;;;;;;;;;-0.86;62.14;95582.31;5021324;28;20365;-69
2022/01/06 08:44:54;;;;;;;;;;;;;;;-1.17;63.43;95586.16;5001583;28;20272;-69
2022/01/06 08:47:20;;;;;;;;;;;;;;;-1.60;61.86;95577.69;5005539;28;20069;-69
2022/01/06 08:49:45;;;;;;;;;;;;;;;-1.65;62.23;95585.00;5005887;28;20005;-69
2022/01/06 08:52:10;;;;;;;;;;;;;;;-1.52;65.00;95580.63;4999650;28;20044;-69
2022/01/06 08:54:35;;;;;;;;;;;;;;;-1.12;63.93;95578.88;5012185;28;20076;-69
2022/01/06 08:57:01;;;;;;;;;;;;;;;-0.42;63.70;95584.50;4998856;28;20084;-69
2022/01/06 08:59:26;;;;;;;;;;;;;;;-0.41;60.91;95588.78;5013285;28;20008;-69
2022/01/06 09:01:51;;;;;;;;;;;;;;;-0.33;61.52;95591.66;4995717;28;20023;-69
2022/01/06 09:04:20;;;;;;;;;;;;;;;-0.25;60.88;95601.59;5001012;28;20002;-69
2022/01/06 09:06:45;;;;;;;;;;;;;;;-0.41;60.16;95603.66;5000461;28;20002;-69
2022/01/06 09:09:11;;;;;;;;;;;;;;;-0.35;58.64;95598.81;5001636;28;20035;-69
2022/01/06 09:11:36;;;;;;;;;;;;;;;-0.53;61.24;95598.34;5000943;28;19998;-69
2022/01/06 09:14:01;;;;;;;;;;;;;;;-1.08;60.94;95601.22;5001514;28;20032;-69
2022/01/06 09:16:26;;;;;;;;;;;;;;;-0.91;61.04;95605.31;5000215;28;20355;-69
2022/01/06 09:18:52;;;;;;;;;;;;;;;-0.52;63.60;95609.63;5001120;28;19990;-68
2022/01/06 09:21:22;;;;;;;;;;;;;;;-0.63;59.71;95613.84;5000072;28;19976;-69
2022/01/06 09:23:47;;;;;;;;;;;;;;;-0.72;61.20;95612.72;5000958;28;20232;-69
2022/01/06 09:26:13;;;;;;;;;;;;;;;-0.57;61.46;95616.00;4995782;28;20286;-71
2022/01/06 09:28:38;;;;;;;;;;;;;;;-0.36;59.32;95614.63;5000532;28;20434;-71
2022/01/06 09:31:03;;;;;;;;;;;;;;;-0.34;59.15;95628.44;5015430;28;19992;-69
2022/01/06 09:33:28;;;;;;;;;;;;;;;-0.27;63.28;95616.56;5009348;28;20079;-69
2022/01/06 09:35:54;;;;;;;;;;;;;;;-0.29;62.36;95633.31;5007766;28;20240;-69
2022/01/06 09:38:19;;;;;;;;;;;;;;;-0.52;60.09;95636.63;5011350;28;20056;-70
2022/01/06 09:40:45;;;;;;;;;;;;;;;-0.54;59.47;95638.50;5004586;28;20226;-71
2022/01/06 09:43:13;;;;;;;;;;;;;;;-0.58;60.54;95642.28;5000551;28;19985;-69
2022/01/06 09:45:39;;;;;;;;;;;;;;;-0.48;59.82;95638.09;5015586;28;19974;-72
2022/01/06 09:48:05;;;;;;;;;;;;;;;-0.25;60.04;95640.84;5012791;28;19990;-71
2022/01/06 09:50:30;;;;;;;;;;;;;;;-0.52;58.93;95641.84;5001457;28;19985;-70
2022/01/06 09:52:55;;;;;;;;;;;;;;;-0.58;61.39;95643.13;4999280;28;20095;-70
2022/01/06 09:55:21;;;;;;;;;;;;;;;-0.41;60.33;95642.88;5003993;28;19997;-70
2022/01/06 09:57:54;;;;;;;;;;;;;;;-0.28;61.24;95642.84;5000265;28;20100;-71
2022/01/06 10:00:20;;;;;;;;;;;;;;;0.16;59.46;95635.34;5015257;28;19994;-70
2022/01/06 10:02:50;;;;;;;;;;;;;;;0.44;63.00;95644.63;5000593;28;20066;-68
2022/01/06 10:05:16;;;;;;;;;;;;;;;0.34;59.18;95638.38;5001950;28;20039;-69
2022/01/06 10:07:41;;;;;;;;;;;;;;;0.25;56.98;95645.16;5003648;28;20069;-70
2022/01/06 10:10:07;;;;;;;;;;;;;;;0.17;58.01;95642.25;5005803;28;20528;-70
2022/01/06 10:12:33;;;;;;;;;;;;;;;0.41;58.71;95642.22;5002291;28;20069;-69
2022/01/06 10:14:59;;;;;;;;;;;;;;;0.59;58.28;95637.38;5003746;28;20479;-70
2022/01/06 10:17:31;;;;;;;;;;;;;;;0.61;56.14;95637.28;5019532;28;19976;-70
2022/01/06 10:19:57;;;;;;;;;;;;;;;0.90;54.93;95636.88;4986324;28;19989;-68
2022/01/06 10:22:22;;;;;;;;;;;;;;;0.80;56.45;95639.38;4985818;28;20786;-73
2022/01/06 10:24:48;;;;;;;;;;;;;;;0.57;58.00;95641.09;5004046;28;20283;-74
2022/01/06 10:27:14;;;;;;;;;;;;;;;0.71;54.80;95648.75;5019021;28;20052;-74
2022/01/06 10:29:43;;;;;;;;;;;;;;;0.69;57.93;95645.41;5013066;28;20076;-73
2022/01/06 10:32:09;;;;;;;;;;;;;;;0.78;59.36;95635.19;4986745;28;20001;-74
2022/01/06 10:34:35;;;;;;;;;;;;;;;0.56;58.83;95652.53;5018643;28;20064;-73
2022/01/06 10:37:01;;;;;;;;;;;;;;;0.91;56.34;95645.56;5018414;28;19986;-73
2022/01/06 10:39:27;;;;;;;;;;;;;;;1.05;56.34;95645.34;4989752;28;20054;-74
2022/01/06 10:41:52;;;;;;;;;;;;;;;0.99;54.00;95651.09;5003108;28;20366;-73
2022/01/06 10:44:17;;;;;;;;;;;;;;;0.89;53.62;95648.28;4985550;28;19998;-74
2022/01/06 10:46:43;;;;;;;;;;;;;;;0.77;56.56;95652.69;4985093;28;19981;-73
2022/01/06 10:49:09;;;;;;;;;;;;;;;0.64;54.96;95659.78;5003073;28;19990;-73
2022/01/06 10:51:39;;;;;;;;;;;;;;;0.86;57.08;95653.78;5684092;22;20090;-73
2022/01/06 10:54:05;;;;;;;;;;;;;;;1.26;56.39;95651.69;5015464;28;20052;-74
2022/01/06 10:56:30;;;;;;;;;;;;;;;1.21;53.61;95647.63;5021046;28;20625;-72
2022/01/06 10:58:56;;;;;;;;;;;;;;;1.37;55.47;95659.56;5027163;28;20055;-68
2022/01/06 11:01:21;;;;;;;;;;;;;;;0.55;53.12;95654.28;5026844;28;19974;-67
2022/01/06 11:03:47;;;;;;;;;;;;;;;0.19;54.16;95656.91;5028392;28;19989;-67
2022/01/06 11:06:12;;;;;;;;;;;;;;;0.07;54.62;95657.78;5029026;28;19984;-67
2022/01/06 11:08:42;;;;;;;;;;;;;;;-0.04;54.24;95658.56;5021073;28;20032;-67
2022/01/06 11:13:40;;;;;;;;;;;;;;;0.28;56.35;95668.47;5025359;28;19978;-67
2022/01/06 11:16:05;;;;;;;;;;;;;;;0.58;57.67;95667.16;5026724;28;20483;-67
2022/01/06 11:18:31;;;;;;;;;;;;;;;1.01;52.98;95662.28;5029186;28;20025;-67
2022/01/06 11:21:03;;;;;;;;;;;;;;;1.26;54.69;95676.13;5032261;28;19993;-66
2022/01/06 11:23:30;;;;;;;;;;;;;;;1.40;53.49;95671.59;5029095;28;19998;-67
2022/01/06 11:26:06;;;;;;;;;;;;;;;1.05;54.60;95671.56;5028192;28;20683;-66
2022/01/06 11:28:31;;;;;;;;;;;;;;;1.35;57.00;95670.19;5026579;28;19993;-67
2022/01/06 11:30:56;;;;;;;;;;;;;;;1.50;53.45;95672.56;5026851;28;20000;-68
2022/01/06 11:33:22;;;;;;;;;;;;;;;1.52;51.21;95668.03;5028713;28;20035;-68
2022/01/06 11:35:51;;;;;;;;;;;;;;;1.17;55.58;95668.97;5028358;28;20002;-67
2022/01/06 11:38:19;;;;;;;;;;;;;;;1.49;56.46;95670.88;5027228;28;20589;-68
2022/01/06 11:40:44;;;;;;;;;;;;;;;2.15;54.89;95664.03;5028596;28;19997;-68
2022/01/06 11:43:09;;;;;;;;;;;;;;;2.59;54.83;95668.41;5028164;28;20517;-68
2022/01/06 11:45:35;;;;;;;;;;;;;;;2.55;53.50;95670.44;5027951;28;19973;-69
2022/01/06 11:48:05;;;;;;;;;;;;;;;2.53;52.58;95672.38;5027390;28;19994;-68
2022/01/06 11:50:34;;;;;;;;;;;;;;;2.39;53.00;95669.06;5022982;28;19977;-68
2022/01/06 11:53:00;;;;;;;;;;;;;;;2.62;51.23;95665.53;5027253;28;20092;-68
2022/01/06 11:55:29;;;;;;;;;;;;;;;3.72;52.54;95665.16;5026722;28;20088;-67
2022/01/06 11:57:54;;;;;;;;;;;;;;;4.43;50.90;95661.53;5027494;28;20079;-67
2022/01/06 12:00:20;;;;;;;;;;;;;;;4.79;50.16;95662.78;5023919;28;20033;-67
2022/01/06 12:02:58;;;;;;;;;;;;;;;4.29;49.94;95672.50;5026041;28;20040;-67
2022/01/06 12:05:24;;;;;;;;;;;;;;;3.58;48.46;95672.47;5027678;28;19961;-67
2022/01/06 12:07:50;;;;;;;;;;;;;;;3.91;51.22;95665.22;5027764;28;20512;-66
2022/01/06 12:10:15;;;;;;;;;;;;;;;4.03;50.50;95670.38;5028897;28;19969;-66
2022/01/06 12:12:41;;;;;;;;;;;;;;;4.07;49.62;95677.03;5027874;28;20099;-67
2022/01/06 12:15:07;;;;;;;;;;;;;;;3.85;51.25;95670.19;5037989;28;20465;-67
2022/01/06 12:17:32;;;;;;;;;;;;;;;3.35;48.54;95671.78;5027343;28;20044;-67
2022/01/06 12:19:58;;;;;;;;;;;;;;;2.77;48.70;95673.94;5027724;28;20126;-67
2022/01/06 12:22:26;;;;;;;;;;;;;;;2.94;51.05;95666.41;5027758;28;19977;-67
2022/01/06 12:25:01;;;;;;;;;;;;;;;3.34;51.43;95680.63;5027857;28;19986;-67
2022/01/06 12:27:26;;;;;;;;;;;;;;;3.41;47.67;95663.38;5025941;28;19985;-67
2022/01/06 12:29:53;;;;;;;;;;;;;;;3.61;47.84;95668.75;5027858;28;20472;-66
2022/01/06 12:32:19;;;;;;;;;;;;;;;4.37;43.53;95667.38;5026956;28;20658;-66
2022/01/06 12:34:50;;;;;;;;;;;;;;;6.18;38.52;95648.13;5027412;28;19969;-65
2022/01/06 12:37:22;;;;;;;;;;;;;;;6.75;39.60;95657.63;5028108;28;19996;-66
2022/01/06 12:39:48;;;;;;;;;;;;;;;8.34;34.73;95653.13;5027015;28;20159;-66
2022/01/06 12:42:13;;;;;;;;;;;;;;;8.40;34.40;95655.94;5026149;28;20443;-69
2022/01/06 12:44:39;;;;;;;;;;;;;;;10.32;32.16;95655.63;5027818;28;20110;-68
2022/01/06 12:47:05;;;;;;;;;;;;;;;10.17;32.74;95652.88;5027962;28;20020;-69
2022/01/06 12:49:30;;;;;;;;;;;;;;;11.32;31.55;95654.91;5026364;28;20386;-69
2022/01/06 12:51:57;;;;;;;;;;;;;;;11.68;31.63;95642.66;5027348;28;20435;-68